sensor_id;sensor_type;location;lat;lon;timestamp;P1;durP1;ratioP1;P2;durP2;ratioP2
11211;SDS011;5663;50.864;12.096;2023-03-26T00:01:38;2.17;;;1.00;;
11211;SDS011;5663;50.864;12.096;2023-03-26T00:04:11;3.23;;;1.00;;
11211;SDS011;5663;50.864;12.096;2023-03-26T00:06:38;3.37;;;0.90;;
11211;SDS011;5663;50.864;12.096;2023-03-26T00:12:13;1.63;;;0.90;;
11211;SDS011;5663;50.864;12.096;2023-03-26T00:14:40;2.87;;;1.10;;
11211;SDS011;5663;50.864;12.096;2023-03-26T00:17:08;2.27;;;1.10;;
11211;SDS011;5663;50.864;12.096;2023-03-26T00:19:36;4.73;;;0.80;;
11211;SDS011;5663;50.864;12.096;2023-03-26T00:22:05;2.50;;;0.97;;
11211;SDS011;5663;50.864;12.096;2023-03-26T00:24:32;3.70;;;1.07;;
11211;SDS011;5663;50.864;12.096;2023-03-26T00:27:03;2.40;;;1.03;;
11211;SDS011;5663;50.864;12.096;2023-03-26T00:29:33;3.10;;;1.13;;
11211;SDS011;5663;50.864;12.096;2023-03-26T00:32:00;1.90;;;1.23;;
11211;SDS011;5663;50.864;12.096;2023-03-26T00:34:28;3.30;;;1.10;;
11211;SDS011;5663;50.864;12.096;2023-03-26T00:36:59;2.43;;;1.20;;
11211;SDS011;5663;50.864;12.096;2023-03-26T00:39:27;1.53;;;1.03;;
11211;SDS011;5663;50.864;12.096;2023-03-26T00:42:00;1.73;;;1.00;;
11211;SDS011;5663;50.864;12.096;2023-03-26T00:44:33;2.47;;;0.97;;
11211;SDS011;5663;50.864;12.096;2023-03-26T00:47:01;3.97;;;1.17;;
11211;SDS011;5663;50.864;12.096;2023-03-26T00:49:29;2.83;;;1.13;;
11211;SDS011;5663;50.864;12.096;2023-03-26T00:51:56;2.77;;;1.00;;
11211;SDS011;5663;50.864;12.096;2023-03-26T00:54:25;2.23;;;1.10;;
11211;SDS011;5663;50.864;12.096;2023-03-26T00:56:53;1.57;;;1.17;;
11211;SDS011;5663;50.864;12.096;2023-03-26T00:59:21;3.30;;;1.10;;
11211;SDS011;5663;50.864;12.096;2023-03-26T01:01:50;2.30;;;1.23;;
11211;SDS011;5663;50.864;12.096;2023-03-26T01:04:21;3.47;;;1.23;;
11211;SDS011;5663;50.864;12.096;2023-03-26T01:06:52;2.93;;;1.27;;
11211;SDS011;5663;50.864;12.096;2023-03-26T01:09:22;1.97;;;1.20;;
11211;SDS011;5663;50.864;12.096;2023-03-26T01:11:57;2.37;;;1.13;;
11211;SDS011;5663;50.864;12.096;2023-03-26T01:14:27;1.73;;;1.10;;
11211;SDS011;5663;50.864;12.096;2023-03-26T01:16:57;3.27;;;1.23;;
11211;SDS011;5663;50.864;12.096;2023-03-26T01:19:27;3.17;;;1.10;;
11211;SDS011;5663;50.864;12.096;2023-03-26T01:22:03;4.17;;;1.50;;
11211;SDS011;5663;50.864;12.096;2023-03-26T01:24:32;2.10;;;1.40;;
11211;SDS011;5663;50.864;12.096;2023-03-26T01:27:06;2.97;;;1.20;;
11211;SDS011;5663;50.864;12.096;2023-03-26T01:29:43;3.23;;;1.10;;
11211;SDS011;5663;50.864;12.096;2023-03-26T01:32:16;3.03;;;1.00;;
11211;SDS011;5663;50.864;12.096;2023-03-26T01:34:53;3.00;;;1.23;;
11211;SDS011;5663;50.864;12.096;2023-03-26T01:37:35;2.50;;;1.20;;
11211;SDS011;5663;50.864;12.096;2023-03-26T01:40:13;5.33;;;1.27;;
11211;SDS011;5663;50.864;12.096;2023-03-26T01:42:53;4.10;;;1.40;;
11211;SDS011;5663;50.864;12.096;2023-03-26T01:45:25;1.33;;;1.20;;
11211;SDS011;5663;50.864;12.096;2023-03-26T01:47:56;3.33;;;1.43;;
11211;SDS011;5663;50.864;12.096;2023-03-26T01:50:24;3.73;;;1.10;;
11211;SDS011;5663;50.864;12.096;2023-03-26T01:52:52;1.93;;;1.20;;
11211;SDS011;5663;50.864;12.096;2023-03-26T01:55:21;3.87;;;1.20;;
11211;SDS011;5663;50.864;12.096;2023-03-26T01:57:56;2.63;;;1.03;;
11211;SDS011;5663;50.864;12.096;2023-03-26T02:00:34;2.93;;;1.30;;
11211;SDS011;5663;50.864;12.096;2023-03-26T02:03:13;3.33;;;1.00;;
11211;SDS011;5663;50.864;12.096;2023-03-26T02:05:51;3.57;;;1.17;;
11211;SDS011;5663;50.864;12.096;2023-03-26T02:08:23;3.97;;;1.17;;
11211;SDS011;5663;50.864;12.096;2023-03-26T02:11:02;2.70;;;1.20;;
11211;SDS011;5663;50.864;12.096;2023-03-26T02:13:35;3.33;;;1.00;;
11211;SDS011;5663;50.864;12.096;2023-03-26T02:16:04;1.93;;;1.20;;
11211;SDS011;5663;50.864;12.096;2023-03-26T02:18:33;2.63;;;1.10;;
11211;SDS011;5663;50.864;12.096;2023-03-26T02:21:04;3.47;;;1.13;;
11211;SDS011;5663;50.864;12.096;2023-03-26T02:23:35;2.40;;;0.97;;
11211;SDS011;5663;50.864;12.096;2023-03-26T02:26:06;3.67;;;1.10;;
11211;SDS011;5663;50.864;12.096;2023-03-26T02:28:35;2.03;;;0.93;;
11211;SDS011;5663;50.864;12.096;2023-03-26T02:31:04;1.13;;;1.03;;
11211;SDS011;5663;50.864;12.096;2023-03-26T02:33:34;2.50;;;1.20;;
11211;SDS011;5663;50.864;12.096;2023-03-26T02:36:02;4.17;;;1.30;;
11211;SDS011;5663;50.864;12.096;2023-03-26T02:38:31;3.87;;;1.10;;
11211;SDS011;5663;50.864;12.096;2023-03-26T02:40:59;1.67;;;1.10;;
11211;SDS011;5663;50.864;12.096;2023-03-26T02:43:29;1.83;;;1.10;;
11211;SDS011;5663;50.864;12.096;2023-03-26T02:45:56;2.50;;;1.17;;
11211;SDS011;5663;50.864;12.096;2023-03-26T02:48:24;1.13;;;0.83;;
11211;SDS011;5663;50.864;12.096;2023-03-26T02:50:51;4.23;;;1.80;;
11211;SDS011;5663;50.864;12.096;2023-03-26T02:53:20;2.80;;;1.10;;
11211;SDS011;5663;50.864;12.096;2023-03-26T02:55:48;3.07;;;1.10;;
11211;SDS011;5663;50.864;12.096;2023-03-26T02:58:16;2.87;;;1.30;;
11211;SDS011;5663;50.864;12.096;2023-03-26T03:00:46;3.70;;;1.40;;
11211;SDS011;5663;50.864;12.096;2023-03-26T03:03:15;5.03;;;1.23;;
11211;SDS011;5663;50.864;12.096;2023-03-26T03:05:43;5.23;;;1.33;;
11211;SDS011;5663;50.864;12.096;2023-03-26T03:08:10;7.93;;;1.40;;
11211;SDS011;5663;50.864;12.096;2023-03-26T03:10:38;4.67;;;1.50;;
11211;SDS011;5663;50.864;12.096;2023-03-26T03:13:06;3.83;;;1.30;;
11211;SDS011;5663;50.864;12.096;2023-03-26T03:15:33;4.90;;;1.50;;
11211;SDS011;5663;50.864;12.096;2023-03-26T03:18:02;3.80;;;1.40;;
11211;SDS011;5663;50.864;12.096;2023-03-26T03:20:30;2.67;;;1.33;;
11211;SDS011;5663;50.864;12.096;2023-03-26T03:23:00;3.30;;;1.20;;
11211;SDS011;5663;50.864;12.096;2023-03-26T03:25:27;3.03;;;1.17;;
11211;SDS011;5663;50.864;12.096;2023-03-26T03:27:55;4.90;;;1.50;;
11211;SDS011;5663;50.864;12.096;2023-03-26T03:30:23;3.13;;;1.50;;
11211;SDS011;5663;50.864;12.096;2023-03-26T03:32:51;2.17;;;1.40;;
11211;SDS011;5663;50.864;12.096;2023-03-26T03:35:20;1.73;;;1.40;;
11211;SDS011;5663;50.864;12.096;2023-03-26T03:37:47;6.53;;;1.77;;
11211;SDS011;5663;50.864;12.096;2023-03-26T03:40:15;6.23;;;1.73;;
11211;SDS011;5663;50.864;12.096;2023-03-26T03:42:44;5.23;;;1.20;;
11211;SDS011;5663;50.864;12.096;2023-03-26T03:45:12;4.53;;;1.50;;
11211;SDS011;5663;50.864;12.096;2023-03-26T03:47:40;4.57;;;1.70;;
11211;SDS011;5663;50.864;12.096;2023-03-26T03:50:08;4.63;;;1.50;;
11211;SDS011;5663;50.864;12.096;2023-03-26T03:52:37;4.70;;;1.70;;
11211;SDS011;5663;50.864;12.096;2023-03-26T03:55:05;3.17;;;1.40;;
11211;SDS011;5663;50.864;12.096;2023-03-26T03:57:35;5.47;;;1.33;;
11211;SDS011;5663;50.864;12.096;2023-03-26T04:00:03;6.93;;;1.67;;
11211;SDS011;5663;50.864;12.096;2023-03-26T04:02:33;3.63;;;1.60;;
11211;SDS011;5663;50.864;12.096;2023-03-26T04:05:01;3.93;;;1.83;;
11211;SDS011;5663;50.864;12.096;2023-03-26T04:07:31;2.63;;;1.20;;
11211;SDS011;5663;50.864;12.096;2023-03-26T04:10:00;4.77;;;1.63;;
11211;SDS011;5663;50.864;12.096;2023-03-26T04:12:28;5.60;;;1.70;;
11211;SDS011;5663;50.864;12.096;2023-03-26T04:14:56;7.03;;;1.80;;
11211;SDS011;5663;50.864;12.096;2023-03-26T04:17:25;6.07;;;1.90;;
11211;SDS011;5663;50.864;12.096;2023-03-26T04:19:54;6.60;;;1.50;;
11211;SDS011;5663;50.864;12.096;2023-03-26T04:22:22;4.40;;;1.53;;
11211;SDS011;5663;50.864;12.096;2023-03-26T04:25:02;5.10;;;1.50;;
11211;SDS011;5663;50.864;12.096;2023-03-26T04:27:30;4.20;;;1.40;;
11211;SDS011;5663;50.864;12.096;2023-03-26T04:30:01;2.67;;;1.10;;
11211;SDS011;5663;50.864;12.096;2023-03-26T04:32:30;6.80;;;1.77;;
11211;SDS011;5663;50.864;12.096;2023-03-26T04:34:59;7.53;;;2.10;;
11211;SDS011;5663;50.864;12.096;2023-03-26T04:37:29;8.53;;;1.80;;
11211;SDS011;5663;50.864;12.096;2023-03-26T04:40:06;4.67;;;1.60;;
11211;SDS011;5663;50.864;12.096;2023-03-26T04:42:38;5.03;;;1.80;;
11211;SDS011;5663;50.864;12.096;2023-03-26T04:45:12;6.07;;;1.77;;
11211;SDS011;5663;50.864;12.096;2023-03-26T04:48:04;6.70;;;1.50;;
11211;SDS011;5663;50.864;12.096;2023-03-26T04:50:54;4.57;;;1.53;;
11211;SDS011;5663;50.864;12.096;2023-03-26T04:53:22;7.83;;;1.67;;
11211;SDS011;5663;50.864;12.096;2023-03-26T04:55:54;6.50;;;2.00;;
11211;SDS011;5663;50.864;12.096;2023-03-26T04:58:26;4.10;;;1.70;;
11211;SDS011;5663;50.864;12.096;2023-03-26T05:00:57;6.30;;;1.70;;
11211;SDS011;5663;50.864;12.096;2023-03-26T05:03:25;5.53;;;1.90;;
11211;SDS011;5663;50.864;12.096;2023-03-26T08:08:17;7.60;;;2.17;;
11211;SDS011;5663;50.864;12.096;2023-03-26T08:10:52;6.60;;;1.87;;
11211;SDS011;5663;50.864;12.096;2023-03-26T08:13:29;5.17;;;1.83;;
11211;SDS011;5663;50.864;12.096;2023-03-26T08:16:06;6.67;;;2.40;;
11211;SDS011;5663;50.864;12.096;2023-03-26T08:18:42;8.53;;;2.33;;
11211;SDS011;5663;50.864;12.096;2023-03-26T08:21:17;7.13;;;2.00;;
11211;SDS011;5663;50.864;12.096;2023-03-26T08:23:54;4.53;;;2.20;;
11211;SDS011;5663;50.864;12.096;2023-03-26T08:26:30;7.47;;;2.47;;
11211;SDS011;5663;50.864;12.096;2023-03-26T08:29:06;7.27;;;1.83;;
11211;SDS011;5663;50.864;12.096;2023-03-26T08:31:42;7.20;;;2.10;;
11211;SDS011;5663;50.864;12.096;2023-03-26T08:34:14;5.87;;;2.20;;
11211;SDS011;5663;50.864;12.096;2023-03-26T08:36:41;8.70;;;2.30;;
11211;SDS011;5663;50.864;12.096;2023-03-26T08:39:10;7.67;;;2.53;;
11211;SDS011;5663;50.864;12.096;2023-03-26T08:45:02;6.93;;;2.20;;
11211;SDS011;5663;50.864;12.096;2023-03-26T08:54:05;5.77;;;2.03;;
11211;SDS011;5663;50.864;12.096;2023-03-26T08:57:00;6.13;;;1.90;;
11211;SDS011;5663;50.864;12.096;2023-03-26T08:59:49;8.47;;;2.33;;
11211;SDS011;5663;50.864;12.096;2023-03-26T09:02:40;5.87;;;2.00;;
11211;SDS011;5663;50.864;12.096;2023-03-26T09:05:52;7.90;;;2.03;;
11211;SDS011;5663;50.864;12.096;2023-03-26T11:09:13;5.80;;;1.90;;
11211;SDS011;5663;50.864;12.096;2023-03-26T11:11:51;6.13;;;2.00;;
11211;SDS011;5663;50.864;12.096;2023-03-26T11:14:26;7.27;;;2.03;;
11211;SDS011;5663;50.864;12.096;2023-03-26T11:17:00;9.53;;;2.70;;
11211;SDS011;5663;50.864;12.096;2023-03-26T11:19:37;5.70;;;1.77;;
11211;SDS011;5663;50.864;12.096;2023-03-26T11:22:13;5.37;;;2.10;;
11211;SDS011;5663;50.864;12.096;2023-03-26T11:27:54;3.23;;;1.80;;
11211;SDS011;5663;50.864;12.096;2023-03-26T11:30:35;6.33;;;2.07;;
11211;SDS011;5663;50.864;12.096;2023-03-26T11:33:14;5.33;;;1.50;;
11211;SDS011;5663;50.864;12.096;2023-03-26T11:35:48;5.57;;;2.00;;
11211;SDS011;5663;50.864;12.096;2023-03-26T11:38:18;8.63;;;1.90;;
11211;SDS011;5663;50.864;12.096;2023-03-26T11:40:51;5.97;;;1.90;;
11211;SDS011;5663;50.864;12.096;2023-03-26T11:43:23;5.40;;;1.73;;
11211;SDS011;5663;50.864;12.096;2023-03-26T11:45:55;6.07;;;2.03;;
11211;SDS011;5663;50.864;12.096;2023-03-26T11:48:25;6.00;;;1.70;;
11211;SDS011;5663;50.864;12.096;2023-03-26T11:50:58;6.57;;;1.77;;
11211;SDS011;5663;50.864;12.096;2023-03-26T11:53:31;8.40;;;1.93;;
11211;SDS011;5663;50.864;12.096;2023-03-26T11:56:04;5.30;;;1.60;;
11211;SDS011;5663;50.864;12.096;2023-03-26T11:58:41;3.77;;;1.67;;
11211;SDS011;5663;50.864;12.096;2023-03-26T12:01:13;5.47;;;1.53;;
11211;SDS011;5663;50.864;12.096;2023-03-26T12:03:54;4.97;;;2.23;;
11211;SDS011;5663;50.864;12.096;2023-03-26T12:06:24;4.70;;;1.80;;
11211;SDS011;5663;50.864;12.096;2023-03-26T12:08:54;3.80;;;2.00;;
11211;SDS011;5663;50.864;12.096;2023-03-26T12:11:23;4.07;;;1.77;;
11211;SDS011;5663;50.864;12.096;2023-03-26T12:13:57;6.63;;;1.87;;
11211;SDS011;5663;50.864;12.096;2023-03-26T12:16:26;3.23;;;1.50;;
11211;SDS011;5663;50.864;12.096;2023-03-26T12:18:58;6.87;;;1.77;;
11211;SDS011;5663;50.864;12.096;2023-03-26T12:21:28;6.93;;;1.67;;
11211;SDS011;5663;50.864;12.096;2023-03-26T12:23:57;3.67;;;1.50;;
11211;SDS011;5663;50.864;12.096;2023-03-26T12:29:13;8.30;;;2.40;;
11211;SDS011;5663;50.864;12.096;2023-03-26T12:31:47;5.50;;;1.73;;
11211;SDS011;5663;50.864;12.096;2023-03-26T12:34:19;8.20;;;2.07;;
11211;SDS011;5663;50.864;12.096;2023-03-26T12:36:49;3.73;;;1.70;;
11211;SDS011;5663;50.864;12.096;2023-03-26T12:39:25;5.03;;;2.10;;
11211;SDS011;5663;50.864;12.096;2023-03-26T12:41:55;5.00;;;1.97;;
11211;SDS011;5663;50.864;12.096;2023-03-26T12:44:28;4.67;;;1.70;;
11211;SDS011;5663;50.864;12.096;2023-03-26T12:47:07;2.30;;;1.60;;
11211;SDS011;5663;50.864;12.096;2023-03-26T12:49:46;5.30;;;1.90;;
11211;SDS011;5663;50.864;12.096;2023-03-26T12:55:38;5.47;;;1.80;;
11211;SDS011;5663;50.864;12.096;2023-03-26T12:58:29;4.50;;;1.43;;
11211;SDS011;5663;50.864;12.096;2023-03-26T13:01:19;4.17;;;1.80;;
11211;SDS011;5663;50.864;12.096;2023-03-26T13:03:58;5.90;;;1.80;;
11211;SDS011;5663;50.864;12.096;2023-03-26T13:06:43;4.73;;;1.90;;
11211;SDS011;5663;50.864;12.096;2023-03-26T13:09:23;3.67;;;1.73;;
11211;SDS011;5663;50.864;12.096;2023-03-26T13:11:59;6.40;;;2.10;;
11211;SDS011;5663;50.864;12.096;2023-03-26T13:17:32;7.60;;;1.80;;
11211;SDS011;5663;50.864;12.096;2023-03-26T13:20:07;5.13;;;1.87;;
11211;SDS011;5663;50.864;12.096;2023-03-26T13:22:42;4.07;;;1.50;;
11211;SDS011;5663;50.864;12.096;2023-03-26T13:25:22;5.07;;;1.63;;
11211;SDS011;5663;50.864;12.096;2023-03-26T13:28:00;7.20;;;2.00;;
11211;SDS011;5663;50.864;12.096;2023-03-26T13:30:40;5.23;;;1.83;;
11211;SDS011;5663;50.864;12.096;2023-03-26T13:33:22;1.93;;;1.27;;
11211;SDS011;5663;50.864;12.096;2023-03-26T13:35:58;2.10;;;1.10;;
11211;SDS011;5663;50.864;12.096;2023-03-26T13:38:32;2.30;;;1.33;;
11211;SDS011;5663;50.864;12.096;2023-03-26T13:41:09;3.63;;;1.00;;
11211;SDS011;5663;50.864;12.096;2023-03-26T13:43:53;1.27;;;0.90;;
11211;SDS011;5663;50.864;12.096;2023-03-26T13:46:28;2.47;;;0.90;;
11211;SDS011;5663;50.864;12.096;2023-03-26T13:49:02;2.17;;;1.00;;
11211;SDS011;5663;50.864;12.096;2023-03-26T13:51:38;2.40;;;1.10;;
11211;SDS011;5663;50.864;12.096;2023-03-26T13:54:10;2.00;;;1.20;;
11211;SDS011;5663;50.864;12.096;2023-03-26T13:56:45;1.20;;;1.10;;
11211;SDS011;5663;50.864;12.096;2023-03-26T13:59:17;0.97;;;0.90;;
11211;SDS011;5663;50.864;12.096;2023-03-26T14:01:49;4.20;;;1.50;;
11211;SDS011;5663;50.864;12.096;2023-03-26T14:04:24;3.70;;;1.47;;
11211;SDS011;5663;50.864;12.096;2023-03-26T14:06:58;2.97;;;1.90;;
11211;SDS011;5663;50.864;12.096;2023-03-26T14:09:33;3.03;;;2.23;;
11211;SDS011;5663;50.864;12.096;2023-03-26T14:12:19;3.70;;;1.80;;
11211;SDS011;5663;50.864;12.096;2023-03-26T14:14:53;4.07;;;1.80;;
11211;SDS011;5663;50.864;12.096;2023-03-26T14:17:27;5.07;;;1.70;;
11211;SDS011;5663;50.864;12.096;2023-03-26T14:23:12;2.43;;;1.40;;
11211;SDS011;5663;50.864;12.096;2023-03-26T14:25:58;2.70;;;1.10;;
11211;SDS011;5663;50.864;12.096;2023-03-26T14:28:47;1.97;;;1.50;;
11211;SDS011;5663;50.864;12.096;2023-03-26T14:31:25;1.20;;;1.07;;
11211;SDS011;5663;50.864;12.096;2023-03-26T14:34:04;2.03;;;1.30;;
11211;SDS011;5663;50.864;12.096;2023-03-26T14:39:47;7.10;;;1.93;;
11211;SDS011;5663;50.864;12.096;2023-03-26T14:42:40;2.77;;;1.33;;
11211;SDS011;5663;50.864;12.096;2023-03-26T14:48:26;4.83;;;1.57;;
11211;SDS011;5663;50.864;12.096;2023-03-26T14:51:22;3.13;;;1.57;;
11211;SDS011;5663;50.864;12.096;2023-03-26T14:54:01;2.57;;;1.53;;
11211;SDS011;5663;50.864;12.096;2023-03-26T14:56:41;3.00;;;1.60;;
11211;SDS011;5663;50.864;12.096;2023-03-26T14:59:40;2.60;;;1.50;;
11211;SDS011;5663;50.864;12.096;2023-03-26T15:02:45;2.97;;;1.90;;
11211;SDS011;5663;50.864;12.096;2023-03-26T15:05:46;4.13;;;1.63;;
11211;SDS011;5663;50.864;12.096;2023-03-26T18:14:28;3.93;;;2.40;;
11211;SDS011;5663;50.864;12.096;2023-03-26T18:17:10;2.50;;;2.13;;
11211;SDS011;5663;50.864;12.096;2023-03-26T18:19:45;3.47;;;2.47;;
11211;SDS011;5663;50.864;12.096;2023-03-26T18:22:16;5.83;;;2.67;;
11211;SDS011;5663;50.864;12.096;2023-03-26T18:24:46;5.47;;;3.30;;
11211;SDS011;5663;50.864;12.096;2023-03-26T18:27:16;2.87;;;2.20;;
11211;SDS011;5663;50.864;12.096;2023-03-26T18:29:56;3.33;;;2.60;;
11211;SDS011;5663;50.864;12.096;2023-03-26T18:32:27;4.80;;;3.20;;
11211;SDS011;5663;50.864;12.096;2023-03-26T18:34:58;12.60;;;6.77;;
11211;SDS011;5663;50.864;12.096;2023-03-26T18:37:28;11.63;;;6.00;;
11211;SDS011;5663;50.864;12.096;2023-03-26T18:39:59;5.73;;;3.90;;
11211;SDS011;5663;50.864;12.096;2023-03-26T18:42:38;7.27;;;4.50;;
11211;SDS011;5663;50.864;12.096;2023-03-26T18:45:13;3.37;;;2.73;;
11211;SDS011;5663;50.864;12.096;2023-03-26T18:47:49;5.90;;;3.10;;
11211;SDS011;5663;50.864;12.096;2023-03-26T18:50:20;3.87;;;3.00;;
11211;SDS011;5663;50.864;12.096;2023-03-26T18:52:51;5.87;;;3.20;;
11211;SDS011;5663;50.864;12.096;2023-03-26T18:55:22;6.33;;;3.07;;
11211;SDS011;5663;50.864;12.096;2023-03-26T18:57:54;5.10;;;2.53;;
11211;SDS011;5663;50.864;12.096;2023-03-26T19:00:23;4.80;;;2.80;;
11211;SDS011;5663;50.864;12.096;2023-03-26T19:02:56;5.67;;;2.90;;
11211;SDS011;5663;50.864;12.096;2023-03-26T19:05:29;4.97;;;2.90;;
11211;SDS011;5663;50.864;12.096;2023-03-26T19:07:59;2.67;;;2.27;;
11211;SDS011;5663;50.864;12.096;2023-03-26T19:10:30;8.40;;;2.83;;
11211;SDS011;5663;50.864;12.096;2023-03-26T19:13:00;5.07;;;3.10;;
11211;SDS011;5663;50.864;12.096;2023-03-26T19:15:29;5.73;;;3.30;;
11211;SDS011;5663;50.864;12.096;2023-03-26T19:17:58;10.60;;;6.03;;
11211;SDS011;5663;50.864;12.096;2023-03-26T19:20:34;11.27;;;7.70;;
11211;SDS011;5663;50.864;12.096;2023-03-26T19:23:06;12.53;;;6.97;;
11211;SDS011;5663;50.864;12.096;2023-03-26T19:25:37;8.33;;;5.73;;
11211;SDS011;5663;50.864;12.096;2023-03-26T19:28:13;12.90;;;7.17;;
11211;SDS011;5663;50.864;12.096;2023-03-26T19:30:44;11.40;;;5.27;;
11211;SDS011;5663;50.864;12.096;2023-03-26T19:33:13;7.23;;;4.77;;
11211;SDS011;5663;50.864;12.096;2023-03-26T19:35:43;8.27;;;5.40;;
11211;SDS011;5663;50.864;12.096;2023-03-26T19:38:16;9.50;;;5.67;;
11211;SDS011;5663;50.864;12.096;2023-03-26T19:40:47;9.70;;;6.40;;
11211;SDS011;5663;50.864;12.096;2023-03-26T19:43:18;9.07;;;3.80;;
11211;SDS011;5663;50.864;12.096;2023-03-26T19:45:47;6.00;;;3.87;;
11211;SDS011;5663;50.864;12.096;2023-03-26T19:48:17;4.77;;;3.40;;
11211;SDS011;5663;50.864;12.096;2023-03-26T19:50:52;6.63;;;4.47;;
11211;SDS011;5663;50.864;12.096;2023-03-26T19:53:29;5.00;;;4.10;;
11211;SDS011;5663;50.864;12.096;2023-03-26T19:55:58;5.37;;;4.13;;
11211;SDS011;5663;50.864;12.096;2023-03-26T19:58:32;3.40;;;3.10;;
11211;SDS011;5663;50.864;12.096;2023-03-26T20:01:01;4.70;;;3.27;;
11211;SDS011;5663;50.864;12.096;2023-03-26T20:03:29;2.67;;;2.40;;
11211;SDS011;5663;50.864;12.096;2023-03-26T20:06:04;4.77;;;2.60;;
11211;SDS011;5663;50.864;12.096;2023-03-26T20:08:33;2.83;;;2.33;;
11211;SDS011;5663;50.864;12.096;2023-03-26T20:11:01;3.00;;;2.33;;
11211;SDS011;5663;50.864;12.096;2023-03-26T20:13:28;5.27;;;2.90;;
11211;SDS011;5663;50.864;12.096;2023-03-26T20:16:00;4.07;;;2.90;;
11211;SDS011;5663;50.864;12.096;2023-03-26T20:18:32;5.13;;;3.23;;
11211;SDS011;5663;50.864;12.096;2023-03-26T20:21:00;3.37;;;2.90;;
11211;SDS011;5663;50.864;12.096;2023-03-26T20:23:28;4.80;;;2.57;;
11211;SDS011;5663;50.864;12.096;2023-03-26T20:25:55;2.97;;;2.53;;
11211;SDS011;5663;50.864;12.096;2023-03-26T20:28:23;4.10;;;3.27;;
11211;SDS011;5663;50.864;12.096;2023-03-26T20:30:51;4.83;;;3.70;;
11211;SDS011;5663;50.864;12.096;2023-03-26T20:33:21;4.30;;;3.13;;
11211;SDS011;5663;50.864;12.096;2023-03-26T20:35:51;4.13;;;3.60;;
11211;SDS011;5663;50.864;12.096;2023-03-26T20:38:19;5.93;;;4.40;;
11211;SDS011;5663;50.864;12.096;2023-03-26T20:40:47;6.37;;;3.87;;
11211;SDS011;5663;50.864;12.096;2023-03-26T20:43:16;4.10;;;3.70;;
11211;SDS011;5663;50.864;12.096;2023-03-26T20:45:46;4.30;;;3.73;;
11211;SDS011;5663;50.864;12.096;2023-03-26T20:48:14;5.73;;;3.80;;
11211;SDS011;5663;50.864;12.096;2023-03-26T20:50:43;4.07;;;3.20;;
11211;SDS011;5663;50.864;12.096;2023-03-26T20:53:11;3.80;;;3.03;;
11211;SDS011;5663;50.864;12.096;2023-03-26T20:55:41;3.40;;;2.60;;
11211;SDS011;5663;50.864;12.096;2023-03-26T20:58:11;3.53;;;2.80;;
11211;SDS011;5663;50.864;12.096;2023-03-26T21:00:40;5.30;;;2.30;;
11211;SDS011;5663;50.864;12.096;2023-03-26T21:03:11;5.33;;;2.37;;
11211;SDS011;5663;50.864;12.096;2023-03-26T21:05:40;2.77;;;2.20;;
11211;SDS011;5663;50.864;12.096;2023-03-26T21:08:12;8.07;;;2.43;;
11211;SDS011;5663;50.864;12.096;2023-03-26T21:10:43;4.73;;;2.30;;
11211;SDS011;5663;50.864;12.096;2023-03-26T21:13:12;3.07;;;1.90;;
11211;SDS011;5663;50.864;12.096;2023-03-26T21:15:46;3.30;;;2.40;;
11211;SDS011;5663;50.864;12.096;2023-03-26T21:18:14;3.23;;;2.10;;
11211;SDS011;5663;50.864;12.096;2023-03-26T21:20:42;4.10;;;2.57;;
11211;SDS011;5663;50.864;12.096;2023-03-26T21:23:18;4.20;;;2.90;;
11211;SDS011;5663;50.864;12.096;2023-03-26T21:25:52;4.07;;;2.50;;
11211;SDS011;5663;50.864;12.096;2023-03-26T21:28:28;6.30;;;3.50;;
11211;SDS011;5663;50.864;12.096;2023-03-26T21:31:00;3.87;;;3.50;;
11211;SDS011;5663;50.864;12.096;2023-03-26T21:33:29;3.20;;;2.83;;
11211;SDS011;5663;50.864;12.096;2023-03-26T21:35:57;4.70;;;3.40;;
11211;SDS011;5663;50.864;12.096;2023-03-26T21:38:28;3.63;;;3.00;;
11211;SDS011;5663;50.864;12.096;2023-03-26T21:40:59;4.73;;;4.27;;
11211;SDS011;5663;50.864;12.096;2023-03-26T21:43:27;5.80;;;4.87;;
11211;SDS011;5663;50.864;12.096;2023-03-26T21:45:55;7.20;;;6.23;;
11211;SDS011;5663;50.864;12.096;2023-03-26T21:48:24;7.27;;;6.03;;
11211;SDS011;5663;50.864;12.096;2023-03-26T21:50:54;6.13;;;5.20;;
11211;SDS011;5663;50.864;12.096;2023-03-26T21:53:28;8.07;;;5.90;;
11211;SDS011;5663;50.864;12.096;2023-03-26T21:55:58;8.80;;;5.97;;
11211;SDS011;5663;50.864;12.096;2023-03-26T21:58:34;9.77;;;8.60;;
11211;SDS011;5663;50.864;12.096;2023-03-26T22:01:16;8.70;;;7.77;;
11211;SDS011;5663;50.864;12.096;2023-03-26T22:03:54;8.77;;;7.87;;
11211;SDS011;5663;50.864;12.096;2023-03-26T22:06:31;11.77;;;9.67;;
11211;SDS011;5663;50.864;12.096;2023-03-26T22:09:04;11.47;;;9.87;;
11211;SDS011;5663;50.864;12.096;2023-03-26T23:04:03;7.97;;;4.87;;
11211;SDS011;5663;50.864;12.096;2023-03-26T23:06:31;6.60;;;4.60;;
11211;SDS011;5663;50.864;12.096;2023-03-26T23:08:59;5.30;;;4.77;;
